sensor_id;sensor_type;location;lat;lon;timestamp;temperature;humidity
5394;DHT22;2720;52.396;10.064;2023-05-29T00:00:40;11.90;99.90
5394;DHT22;2720;52.396;10.064;2023-05-29T00:03:07;11.80;99.90
5394;DHT22;2720;52.396;10.064;2023-05-29T00:05:35;11.70;99.90
5394;DHT22;2720;52.396;10.064;2023-05-29T00:08:02;11.60;99.90
5394;DHT22;2720;52.396;10.064;2023-05-29T00:10:29;11.50;99.90
5394;DHT22;2720;52.396;10.064;2023-05-29T00:12:58;11.40;99.90
5394;DHT22;2720;52.396;10.064;2023-05-29T00:15:26;11.40;99.90
5394;DHT22;2720;52.396;10.064;2023-05-29T00:17:53;11.30;99.90
5394;DHT22;2720;52.396;10.064;2023-05-29T00:20:20;11.30;99.90
5394;DHT22;2720;52.396;10.064;2023-05-29T00:22:47;11.20;99.90
5394;DHT22;2720;52.396;10.064;2023-05-29T00:25:15;11.10;99.90
5394;DHT22;2720;52.396;10.064;2023-05-29T00:27:42;11.00;99.90
5394;DHT22;2720;52.396;10.064;2023-05-29T00:30:11;11.00;99.90
5394;DHT22;2720;52.396;10.064;2023-05-29T00:32:38;11.00;99.90
5394;DHT22;2720;52.396;10.064;2023-05-29T00:35:07;11.00;99.90
5394;DHT22;2720;52.396;10.064;2023-05-29T00:37:34;10.90;99.90
5394;DHT22;2720;52.396;10.064;2023-05-29T00:40:01;10.90;99.90
5394;DHT22;2720;52.396;10.064;2023-05-29T00:42:29;10.90;99.90
5394;DHT22;2720;52.396;10.064;2023-05-29T00:44:56;10.90;99.90
5394;DHT22;2720;52.396;10.064;2023-05-29T00:47:24;10.80;99.90
5394;DHT22;2720;52.396;10.064;2023-05-29T00:49:52;10.80;99.90
5394;DHT22;2720;52.396;10.064;2023-05-29T00:52:20;10.80;99.90
5394;DHT22;2720;52.396;10.064;2023-05-29T00:54:47;10.70;99.90
5394;DHT22;2720;52.396;10.064;2023-05-29T00:57:16;10.70;99.90
5394;DHT22;2720;52.396;10.064;2023-05-29T00:59:44;10.70;99.90
5394;DHT22;2720;52.396;10.064;2023-05-29T01:02:12;10.60;99.90
5394;DHT22;2720;52.396;10.064;2023-05-29T01:04:43;10.60;99.90
5394;DHT22;2720;52.396;10.064;2023-05-29T01:07:11;10.50;99.90
5394;DHT22;2720;52.396;10.064;2023-05-29T01:09:39;10.50;99.90
5394;DHT22;2720;52.396;10.064;2023-05-29T01:12:15;10.40;99.90
5394;DHT22;2720;52.396;10.064;2023-05-29T01:14:50;10.40;99.90
5394;DHT22;2720;52.396;10.064;2023-05-29T01:17:23;10.30;99.90
5394;DHT22;2720;52.396;10.064;2023-05-29T01:20:06;10.30;99.90
5394;DHT22;2720;52.396;10.064;2023-05-29T01:22:46;10.20;99.90
5394;DHT22;2720;52.396;10.064;2023-05-29T01:25:21;10.10;99.90
5394;DHT22;2720;52.396;10.064;2023-05-29T01:27:52;10.10;99.90
5394;DHT22;2720;52.396;10.064;2023-05-29T01:30:20;10.10;99.90
5394;DHT22;2720;52.396;10.064;2023-05-29T01:32:48;10.10;99.90
5394;DHT22;2720;52.396;10.064;2023-05-29T01:35:15;10.00;99.90
5394;DHT22;2720;52.396;10.064;2023-05-29T01:37:42;10.00;99.90
5394;DHT22;2720;52.396;10.064;2023-05-29T01:40:10;9.90;99.90
5394;DHT22;2720;52.396;10.064;2023-05-29T01:42:37;9.80;99.90
5394;DHT22;2720;52.396;10.064;2023-05-29T01:45:06;9.80;99.90
5394;DHT22;2720;52.396;10.064;2023-05-29T01:47:34;9.80;99.90
5394;DHT22;2720;52.396;10.064;2023-05-29T01:50:04;9.80;99.90
5394;DHT22;2720;52.396;10.064;2023-05-29T01:52:31;9.70;99.90
5394;DHT22;2720;52.396;10.064;2023-05-29T01:54:58;9.70;99.90
5394;DHT22;2720;52.396;10.064;2023-05-29T01:57:25;9.60;99.90
5394;DHT22;2720;52.396;10.064;2023-05-29T01:59:53;9.60;99.90
5394;DHT22;2720;52.396;10.064;2023-05-29T02:02:23;9.50;99.90
5394;DHT22;2720;52.396;10.064;2023-05-29T02:04:50;9.50;99.90
5394;DHT22;2720;52.396;10.064;2023-05-29T02:07:17;9.50;99.90
5394;DHT22;2720;52.396;10.064;2023-05-29T02:09:45;9.50;99.90
5394;DHT22;2720;52.396;10.064;2023-05-29T02:12:12;9.40;99.90
5394;DHT22;2720;52.396;10.064;2023-05-29T02:14:39;9.40;99.90
5394;DHT22;2720;52.396;10.064;2023-05-29T02:17:06;9.40;99.90
5394;DHT22;2720;52.396;10.064;2023-05-29T02:19:36;9.30;99.90
5394;DHT22;2720;52.396;10.064;2023-05-29T02:22:03;9.20;99.90
5394;DHT22;2720;52.396;10.064;2023-05-29T02:24:31;9.20;99.90
5394;DHT22;2720;52.396;10.064;2023-05-29T02:26:58;9.20;99.90
5394;DHT22;2720;52.396;10.064;2023-05-29T02:29:25;9.10;99.90
5394;DHT22;2720;52.396;10.064;2023-05-29T02:31:52;9.10;99.90
5394;DHT22;2720;52.396;10.064;2023-05-29T02:34:18;9.10;99.90
5394;DHT22;2720;52.396;10.064;2023-05-29T02:36:49;9.10;99.90
5394;DHT22;2720;52.396;10.064;2023-05-29T02:39:17;9.10;99.90
5394;DHT22;2720;52.396;10.064;2023-05-29T02:41:44;9.10;99.90
5394;DHT22;2720;52.396;10.064;2023-05-29T02:44:11;9.20;99.90
5394;DHT22;2720;52.396;10.064;2023-05-29T02:46:38;9.20;99.90
5394;DHT22;2720;52.396;10.064;2023-05-29T02:49:05;9.20;99.90
5394;DHT22;2720;52.396;10.064;2023-05-29T02:51:32;9.20;99.90
5394;DHT22;2720;52.396;10.064;2023-05-29T02:54:00;9.20;99.90
5394;DHT22;2720;52.396;10.064;2023-05-29T02:56:27;9.10;99.90
5394;DHT22;2720;52.396;10.064;2023-05-29T02:58:54;9.10;99.90
5394;DHT22;2720;52.396;10.064;2023-05-29T03:01:21;9.10;99.90
5394;DHT22;2720;52.396;10.064;2023-05-29T03:03:48;9.10;99.90
5394;DHT22;2720;52.396;10.064;2023-05-29T03:06:15;9.10;99.90
5394;DHT22;2720;52.396;10.064;2023-05-29T03:08:43;9.20;99.90
5394;DHT22;2720;52.396;10.064;2023-05-29T03:11:14;9.10;99.90
5394;DHT22;2720;52.396;10.064;2023-05-29T03:13:41;9.20;99.90
5394;DHT22;2720;52.396;10.064;2023-05-29T03:16:08;9.20;99.90
5394;DHT22;2720;52.396;10.064;2023-05-29T03:18:35;9.10;99.90
5394;DHT22;2720;52.396;10.064;2023-05-29T03:21:02;9.10;99.90
5394;DHT22;2720;52.396;10.064;2023-05-29T03:23:29;9.20;99.90
5394;DHT22;2720;52.396;10.064;2023-05-29T03:25:57;9.20;99.90
5394;DHT22;2720;52.396;10.064;2023-05-29T03:28:25;9.20;99.90
5394;DHT22;2720;52.396;10.064;2023-05-29T03:30:52;9.20;99.90
5394;DHT22;2720;52.396;10.064;2023-05-29T03:33:19;9.20;99.90
5394;DHT22;2720;52.396;10.064;2023-05-29T03:35:46;9.30;99.90
5394;DHT22;2720;52.396;10.064;2023-05-29T03:38:13;9.40;99.90
5394;DHT22;2720;52.396;10.064;2023-05-29T03:40:40;9.50;99.90
5394;DHT22;2720;52.396;10.064;2023-05-29T03:43:07;9.60;99.90
5394;DHT22;2720;52.396;10.064;2023-05-29T03:45:35;9.70;99.90
5394;DHT22;2720;52.396;10.064;2023-05-29T03:48:02;9.80;99.90
5394;DHT22;2720;52.396;10.064;2023-05-29T03:50:29;9.90;99.90
5394;DHT22;2720;52.396;10.064;2023-05-29T03:52:56;9.90;99.90
5394;DHT22;2720;52.396;10.064;2023-05-29T03:55:23;10.00;99.90
5394;DHT22;2720;52.396;10.064;2023-05-29T03:57:50;10.10;99.90
5394;DHT22;2720;52.396;10.064;2023-05-29T04:00:17;10.10;99.90
5394;DHT22;2720;52.396;10.064;2023-05-29T04:02:45;10.20;99.90
5394;DHT22;2720;52.396;10.064;2023-05-29T04:05:12;10.30;99.90
5394;DHT22;2720;52.396;10.064;2023-05-29T04:07:39;10.30;99.90
5394;DHT22;2720;52.396;10.064;2023-05-29T04:10:07;10.30;99.90
5394;DHT22;2720;52.396;10.064;2023-05-29T04:12:34;10.50;99.90
5394;DHT22;2720;52.396;10.064;2023-05-29T04:15:01;10.50;99.90
5394;DHT22;2720;52.396;10.064;2023-05-29T04:17:28;10.60;99.90
5394;DHT22;2720;52.396;10.064;2023-05-29T04:19:57;10.60;99.90
5394;DHT22;2720;52.396;10.064;2023-05-29T04:22:24;10.70;99.90
5394;DHT22;2720;52.396;10.064;2023-05-29T04:24:51;10.70;99.90
5394;DHT22;2720;52.396;10.064;2023-05-29T04:27:17;10.80;99.90
5394;DHT22;2720;52.396;10.064;2023-05-29T04:29:44;10.90;99.90
5394;DHT22;2720;52.396;10.064;2023-05-29T04:32:11;10.90;99.90
5394;DHT22;2720;52.396;10.064;2023-05-29T04:34:38;10.90;99.90
5394;DHT22;2720;52.396;10.064;2023-05-29T04:37:07;11.10;99.90
5394;DHT22;2720;52.396;10.064;2023-05-29T04:39:34;11.20;99.90
5394;DHT22;2720;52.396;10.064;2023-05-29T04:42:01;11.40;99.90
5394;DHT22;2720;52.396;10.064;2023-05-29T04:44:27;11.40;99.90
5394;DHT22;2720;52.396;10.064;2023-05-29T04:46:55;11.50;99.90
5394;DHT22;2720;52.396;10.064;2023-05-29T04:49:23;11.60;99.90
5394;DHT22;2720;52.396;10.064;2023-05-29T04:51:50;11.70;99.90
5394;DHT22;2720;52.396;10.064;2023-05-29T04:54:21;11.70;99.90
5394;DHT22;2720;52.396;10.064;2023-05-29T04:56:48;11.70;99.90
5394;DHT22;2720;52.396;10.064;2023-05-29T04:59:15;11.70;99.90
5394;DHT22;2720;52.396;10.064;2023-05-29T05:01:42;11.70;99.90
5394;DHT22;2720;52.396;10.064;2023-05-29T05:04:09;11.70;99.90
5394;DHT22;2720;52.396;10.064;2023-05-29T05:06:36;11.80;99.90
5394;DHT22;2720;52.396;10.064;2023-05-29T05:09:04;11.70;99.90
5394;DHT22;2720;52.396;10.064;2023-05-29T05:11:32;11.80;99.90
5394;DHT22;2720;52.396;10.064;2023-05-29T05:13:59;11.70;99.90
5394;DHT22;2720;52.396;10.064;2023-05-29T05:16:26;11.70;99.90
5394;DHT22;2720;52.396;10.064;2023-05-29T05:18:53;11.80;99.90
5394;DHT22;2720;52.396;10.064;2023-05-29T05:21:20;11.90;99.90
5394;DHT22;2720;52.396;10.064;2023-05-29T05:23:47;11.90;99.90
5394;DHT22;2720;52.396;10.064;2023-05-29T05:26:14;12.00;99.90
5394;DHT22;2720;52.396;10.064;2023-05-29T05:28:42;12.00;99.90
5394;DHT22;2720;52.396;10.064;2023-05-29T05:31:10;12.10;99.90
5394;DHT22;2720;52.396;10.064;2023-05-29T05:33:37;12.10;99.90
5394;DHT22;2720;52.396;10.064;2023-05-29T05:36:04;12.10;99.90
5394;DHT22;2720;52.396;10.064;2023-05-29T05:38:32;12.30;99.90
5394;DHT22;2720;52.396;10.064;2023-05-29T05:40:59;12.40;99.90
5394;DHT22;2720;52.396;10.064;2023-05-29T05:43:26;12.50;99.90
5394;DHT22;2720;52.396;10.064;2023-05-29T05:45:56;12.60;99.90
5394;DHT22;2720;52.396;10.064;2023-05-29T05:48:22;12.50;99.90
5394;DHT22;2720;52.396;10.064;2023-05-29T05:50:49;12.50;99.90
5394;DHT22;2720;52.396;10.064;2023-05-29T05:53:16;12.50;99.90
5394;DHT22;2720;52.396;10.064;2023-05-29T05:55:43;12.50;99.90
5394;DHT22;2720;52.396;10.064;2023-05-29T05:58:11;12.50;99.90
5394;DHT22;2720;52.396;10.064;2023-05-29T06:00:39;12.60;99.90
5394;DHT22;2720;52.396;10.064;2023-05-29T06:03:07;12.60;99.90
5394;DHT22;2720;52.396;10.064;2023-05-29T06:05:34;12.70;99.90
5394;DHT22;2720;52.396;10.064;2023-05-29T06:08:02;12.80;99.90
5394;DHT22;2720;52.396;10.064;2023-05-29T06:10:29;12.80;99.90
5394;DHT22;2720;52.396;10.064;2023-05-29T06:12:55;12.90;99.90
5394;DHT22;2720;52.396;10.064;2023-05-29T06:15:22;12.90;99.90
5394;DHT22;2720;52.396;10.064;2023-05-29T06:17:49;13.00;99.90
5394;DHT22;2720;52.396;10.064;2023-05-29T06:20:18;13.10;99.90
5394;DHT22;2720;52.396;10.064;2023-05-29T06:22:46;13.10;99.90
5394;DHT22;2720;52.396;10.064;2023-05-29T06:25:16;13.20;99.90
5394;DHT22;2720;52.396;10.064;2023-05-29T06:27:44;13.20;99.90
5394;DHT22;2720;52.396;10.064;2023-05-29T06:30:11;13.30;99.90
5394;DHT22;2720;52.396;10.064;2023-05-29T06:32:38;13.40;99.90
5394;DHT22;2720;52.396;10.064;2023-05-29T06:35:06;13.30;99.90
5394;DHT22;2720;52.396;10.064;2023-05-29T06:37:34;13.40;99.90
5394;DHT22;2720;52.396;10.064;2023-05-29T06:40:01;13.50;99.90
5394;DHT22;2720;52.396;10.064;2023-05-29T06:42:30;13.60;99.90
5394;DHT22;2720;52.396;10.064;2023-05-29T06:44:56;13.80;99.90
5394;DHT22;2720;52.396;10.064;2023-05-29T06:47:24;13.80;99.90
5394;DHT22;2720;52.396;10.064;2023-05-29T06:49:51;13.80;99.90
5394;DHT22;2720;52.396;10.064;2023-05-29T06:52:18;13.70;99.90
5394;DHT22;2720;52.396;10.064;2023-05-29T06:54:46;13.50;99.90
5394;DHT22;2720;52.396;10.064;2023-05-29T06:57:13;13.40;99.90
5394;DHT22;2720;52.396;10.064;2023-05-29T06:59:40;13.40;99.90
5394;DHT22;2720;52.396;10.064;2023-05-29T07:02:07;13.40;99.90
5394;DHT22;2720;52.396;10.064;2023-05-29T07:04:34;13.40;99.90
5394;DHT22;2720;52.396;10.064;2023-05-29T07:07:01;13.50;99.90
5394;DHT22;2720;52.396;10.064;2023-05-29T07:09:28;13.50;99.90
5394;DHT22;2720;52.396;10.064;2023-05-29T07:11:56;13.70;99.90
5394;DHT22;2720;52.396;10.064;2023-05-29T07:14:23;13.90;99.90
5394;DHT22;2720;52.396;10.064;2023-05-29T07:16:50;14.20;99.90
5394;DHT22;2720;52.396;10.064;2023-05-29T07:19:17;14.30;99.90
5394;DHT22;2720;52.396;10.064;2023-05-29T07:21:44;14.50;99.90
5394;DHT22;2720;52.396;10.064;2023-05-29T07:24:11;14.40;99.90
5394;DHT22;2720;52.396;10.064;2023-05-29T07:26:38;14.50;99.90
5394;DHT22;2720;52.396;10.064;2023-05-29T07:29:06;14.60;99.90
5394;DHT22;2720;52.396;10.064;2023-05-29T07:31:33;14.70;99.90
5394;DHT22;2720;52.396;10.064;2023-05-29T07:34:01;14.60;99.90
5394;DHT22;2720;52.396;10.064;2023-05-29T07:36:29;14.60;99.90
5394;DHT22;2720;52.396;10.064;2023-05-29T07:38:57;14.80;99.90
5394;DHT22;2720;52.396;10.064;2023-05-29T07:41:24;14.80;99.90
5394;DHT22;2720;52.396;10.064;2023-05-29T07:43:52;14.70;99.90
5394;DHT22;2720;52.396;10.064;2023-05-29T07:46:22;14.80;99.90
5394;DHT22;2720;52.396;10.064;2023-05-29T07:48:49;15.00;99.90
5394;DHT22;2720;52.396;10.064;2023-05-29T07:51:16;15.10;99.90
5394;DHT22;2720;52.396;10.064;2023-05-29T07:53:44;15.30;99.90
5394;DHT22;2720;52.396;10.064;2023-05-29T07:56:11;15.30;99.90
5394;DHT22;2720;52.396;10.064;2023-05-29T07:58:39;15.40;99.90
5394;DHT22;2720;52.396;10.064;2023-05-29T08:01:06;15.40;99.90
5394;DHT22;2720;52.396;10.064;2023-05-29T08:03:35;15.50;99.90
5394;DHT22;2720;52.396;10.064;2023-05-29T08:06:02;15.50;99.90
5394;DHT22;2720;52.396;10.064;2023-05-29T08:08:29;15.50;99.90
5394;DHT22;2720;52.396;10.064;2023-05-29T08:10:57;15.60;99.90
5394;DHT22;2720;52.396;10.064;2023-05-29T08:13:24;15.80;99.90
5394;DHT22;2720;52.396;10.064;2023-05-29T08:15:51;15.70;99.90
5394;DHT22;2720;52.396;10.064;2023-05-29T08:18:18;15.70;99.90
5394;DHT22;2720;52.396;10.064;2023-05-29T08:20:46;15.70;99.90
5394;DHT22;2720;52.396;10.064;2023-05-29T08:23:13;15.60;99.90
5394;DHT22;2720;52.396;10.064;2023-05-29T08:25:40;15.70;99.90
5394;DHT22;2720;52.396;10.064;2023-05-29T08:28:07;15.80;99.90
5394;DHT22;2720;52.396;10.064;2023-05-29T08:30:34;15.70;99.90
5394;DHT22;2720;52.396;10.064;2023-05-29T08:33:02;15.60;99.90
5394;DHT22;2720;52.396;10.064;2023-05-29T08:35:29;15.60;99.90
5394;DHT22;2720;52.396;10.064;2023-05-29T08:37:58;15.70;99.90
5394;DHT22;2720;52.396;10.064;2023-05-29T08:40:25;15.80;99.90
5394;DHT22;2720;52.396;10.064;2023-05-29T08:42:57;15.80;99.90
5394;DHT22;2720;52.396;10.064;2023-05-29T08:45:25;15.80;99.90
5394;DHT22;2720;52.396;10.064;2023-05-29T08:47:52;15.80;99.90
5394;DHT22;2720;52.396;10.064;2023-05-29T08:50:20;15.90;99.90
5394;DHT22;2720;52.396;10.064;2023-05-29T08:52:49;16.10;99.90
5394;DHT22;2720;52.396;10.064;2023-05-29T08:55:18;16.20;99.90
5394;DHT22;2720;52.396;10.064;2023-05-29T08:57:45;16.40;99.90
5394;DHT22;2720;52.396;10.064;2023-05-29T09:00:13;16.30;99.90
5394;DHT22;2720;52.396;10.064;2023-05-29T09:02:45;16.40;99.90
5394;DHT22;2720;52.396;10.064;2023-05-29T09:05:12;16.50;99.90
5394;DHT22;2720;52.396;10.064;2023-05-29T09:07:39;16.60;99.90
5394;DHT22;2720;52.396;10.064;2023-05-29T09:10:08;16.60;99.90
5394;DHT22;2720;52.396;10.064;2023-05-29T09:12:37;16.60;99.90
5394;DHT22;2720;52.396;10.064;2023-05-29T09:15:16;16.60;99.90
5394;DHT22;2720;52.396;10.064;2023-05-29T09:17:44;16.60;99.90
5394;DHT22;2720;52.396;10.064;2023-05-29T09:20:15;16.50;99.90
5394;DHT22;2720;52.396;10.064;2023-05-29T09:22:51;16.50;99.90
5394;DHT22;2720;52.396;10.064;2023-05-29T09:25:19;16.60;99.90
5394;DHT22;2720;52.396;10.064;2023-05-29T09:27:51;16.70;99.90
5394;DHT22;2720;52.396;10.064;2023-05-29T09:30:31;16.70;99.90
5394;DHT22;2720;52.396;10.064;2023-05-29T09:32:59;16.60;99.90
5394;DHT22;2720;52.396;10.064;2023-05-29T09:35:35;16.60;99.90
5394;DHT22;2720;52.396;10.064;2023-05-29T09:38:03;16.80;99.90
5394;DHT22;2720;52.396;10.064;2023-05-29T09:40:31;17.00;99.90
5394;DHT22;2720;52.396;10.064;2023-05-29T09:43:09;17.40;99.90
5394;DHT22;2720;52.396;10.064;2023-05-29T09:45:38;17.50;99.90
5394;DHT22;2720;52.396;10.064;2023-05-29T09:48:06;17.50;99.90
5394;DHT22;2720;52.396;10.064;2023-05-29T09:50:34;17.40;99.90
5394;DHT22;2720;52.396;10.064;2023-05-29T09:53:01;17.50;99.90
5394;DHT22;2720;52.396;10.064;2023-05-29T09:55:30;17.80;99.90
5394;DHT22;2720;52.396;10.064;2023-05-29T09:57:59;17.90;99.90
5394;DHT22;2720;52.396;10.064;2023-05-29T10:00:29;18.20;99.90
5394;DHT22;2720;52.396;10.064;2023-05-29T10:02:56;18.40;99.90
5394;DHT22;2720;52.396;10.064;2023-05-29T10:05:24;18.30;99.90
5394;DHT22;2720;52.396;10.064;2023-05-29T10:07:54;18.10;99.90
5394;DHT22;2720;52.396;10.064;2023-05-29T10:10:21;17.90;99.90
5394;DHT22;2720;52.396;10.064;2023-05-29T10:12:53;17.90;99.90
5394;DHT22;2720;52.396;10.064;2023-05-29T10:15:23;17.90;99.90
5394;DHT22;2720;52.396;10.064;2023-05-29T10:18:01;18.10;99.90
5394;DHT22;2720;52.396;10.064;2023-05-29T10:20:30;18.20;99.90
5394;DHT22;2720;52.396;10.064;2023-05-29T10:23:00;18.20;99.90
5394;DHT22;2720;52.396;10.064;2023-05-29T10:25:30;18.30;99.90
5394;DHT22;2720;52.396;10.064;2023-05-29T10:27:58;18.50;99.90
5394;DHT22;2720;52.396;10.064;2023-05-29T10:30:31;18.60;99.90
5394;DHT22;2720;52.396;10.064;2023-05-29T10:33:14;18.70;99.90
5394;DHT22;2720;52.396;10.064;2023-05-29T10:35:47;18.80;99.90
5394;DHT22;2720;52.396;10.064;2023-05-29T10:38:16;18.90;99.90
5394;DHT22;2720;52.396;10.064;2023-05-29T10:40:44;18.90;99.90
5394;DHT22;2720;52.396;10.064;2023-05-29T10:43:29;18.80;99.90
5394;DHT22;2720;52.396;10.064;2023-05-29T10:45:57;18.90;99.90
5394;DHT22;2720;52.396;10.064;2023-05-29T10:48:42;18.80;99.90
5394;DHT22;2720;52.396;10.064;2023-05-29T10:51:25;18.70;99.90
5394;DHT22;2720;52.396;10.064;2023-05-29T10:53:52;18.80;99.90
5394;DHT22;2720;52.396;10.064;2023-05-29T10:56:23;18.80;99.90
5394;DHT22;2720;52.396;10.064;2023-05-29T10:58:55;19.00;99.90
5394;DHT22;2720;52.396;10.064;2023-05-29T11:01:23;19.20;99.90
5394;DHT22;2720;52.396;10.064;2023-05-29T11:03:54;19.40;99.90
5394;DHT22;2720;52.396;10.064;2023-05-29T11:06:42;19.70;99.90
5394;DHT22;2720;52.396;10.064;2023-05-29T11:09:26;19.80;99.90
5394;DHT22;2720;52.396;10.064;2023-05-29T11:12:10;19.70;99.90
5394;DHT22;2720;52.396;10.064;2023-05-29T11:14:44;19.90;99.90
5394;DHT22;2720;52.396;10.064;2023-05-29T11:17:30;20.10;99.90
5394;DHT22;2720;52.396;10.064;2023-05-29T11:20:02;20.40;99.90
5394;DHT22;2720;52.396;10.064;2023-05-29T11:22:44;21.00;99.80
5394;DHT22;2720;52.396;10.064;2023-05-29T11:25:14;21.00;99.30
5394;DHT22;2720;52.396;10.064;2023-05-29T11:27:44;21.10;99.10
5394;DHT22;2720;52.396;10.064;2023-05-29T11:30:12;21.30;99.80
5394;DHT22;2720;52.396;10.064;2023-05-29T11:32:40;21.90;98.30
5394;DHT22;2720;52.396;10.064;2023-05-29T11:35:09;21.90;98.40
5394;DHT22;2720;52.396;10.064;2023-05-29T11:37:39;22.10;97.10
5394;DHT22;2720;52.396;10.064;2023-05-29T11:40:09;22.10;97.70
5394;DHT22;2720;52.396;10.064;2023-05-29T11:42:41;22.20;97.00
5394;DHT22;2720;52.396;10.064;2023-05-29T11:45:13;22.50;97.10
5394;DHT22;2720;52.396;10.064;2023-05-29T11:47:51;22.60;97.30
5394;DHT22;2720;52.396;10.064;2023-05-29T11:50:20;22.40;97.10
5394;DHT22;2720;52.396;10.064;2023-05-29T11:52:47;22.40;97.30
5394;DHT22;2720;52.396;10.064;2023-05-29T11:55:14;22.50;96.50
5394;DHT22;2720;52.396;10.064;2023-05-29T11:57:41;22.40;97.30
5394;DHT22;2720;52.396;10.064;2023-05-29T12:00:13;22.70;97.40
5394;DHT22;2720;52.396;10.064;2023-05-29T12:02:40;23.00;96.20
5394;DHT22;2720;52.396;10.064;2023-05-29T12:05:09;23.20;95.80
5394;DHT22;2720;52.396;10.064;2023-05-29T12:07:47;23.20;95.30
5394;DHT22;2720;52.396;10.064;2023-05-29T12:10:16;23.10;94.90
5394;DHT22;2720;52.396;10.064;2023-05-29T12:12:47;23.30;94.90
5394;DHT22;2720;52.396;10.064;2023-05-29T12:15:14;23.50;95.40
5394;DHT22;2720;52.396;10.064;2023-05-29T12:17:41;23.70;94.30
5394;DHT22;2720;52.396;10.064;2023-05-29T12:20:11;23.40;94.50
5394;DHT22;2720;52.396;10.064;2023-05-29T12:22:41;23.30;94.30
5394;DHT22;2720;52.396;10.064;2023-05-29T12:25:10;23.40;93.90
5394;DHT22;2720;52.396;10.064;2023-05-29T12:27:39;23.60;94.00
5394;DHT22;2720;52.396;10.064;2023-05-29T12:30:10;23.80;94.50
5394;DHT22;2720;52.396;10.064;2023-05-29T12:32:38;24.30;94.40
5394;DHT22;2720;52.396;10.064;2023-05-29T12:35:16;24.70;93.40
5394;DHT22;2720;52.396;10.064;2023-05-29T12:37:46;24.60;93.30
5394;DHT22;2720;52.396;10.064;2023-05-29T12:40:17;24.60;94.50
5394;DHT22;2720;52.396;10.064;2023-05-29T12:42:46;24.60;92.50
5394;DHT22;2720;52.396;10.064;2023-05-29T12:45:13;24.40;93.20
5394;DHT22;2720;52.396;10.064;2023-05-29T12:47:51;24.40;93.30
5394;DHT22;2720;52.396;10.064;2023-05-29T12:50:23;24.90;94.80
5394;DHT22;2720;52.396;10.064;2023-05-29T12:52:55;25.40;92.10
5394;DHT22;2720;52.396;10.064;2023-05-29T12:55:23;25.50;91.50
5394;DHT22;2720;52.396;10.064;2023-05-29T12:57:50;25.50;92.10
5394;DHT22;2720;52.396;10.064;2023-05-29T13:00:17;25.50;91.40
5394;DHT22;2720;52.396;10.064;2023-05-29T13:02:45;25.20;91.50
5394;DHT22;2720;52.396;10.064;2023-05-29T13:05:12;25.20;91.50
5394;DHT22;2720;52.396;10.064;2023-05-29T13:07:41;24.90;91.50
5394;DHT22;2720;52.396;10.064;2023-05-29T13:10:10;24.60;90.70
5394;DHT22;2720;52.396;10.064;2023-05-29T13:12:37;24.60;92.50
5394;DHT22;2720;52.396;10.064;2023-05-29T13:15:05;24.70;90.70
5394;DHT22;2720;52.396;10.064;2023-05-29T13:17:32;24.50;90.50
5394;DHT22;2720;52.396;10.064;2023-05-29T13:19:59;24.30;90.40
5394;DHT22;2720;52.396;10.064;2023-05-29T13:22:26;24.60;90.70
5394;DHT22;2720;52.396;10.064;2023-05-29T13:24:57;24.60;88.90
5394;DHT22;2720;52.396;10.064;2023-05-29T13:27:26;24.60;90.00
5394;DHT22;2720;52.396;10.064;2023-05-29T13:29:53;24.10;88.50
5394;DHT22;2720;52.396;10.064;2023-05-29T13:32:21;23.80;90.10
5394;DHT22;2720;52.396;10.064;2023-05-29T13:34:48;24.00;89.40
5394;DHT22;2720;52.396;10.064;2023-05-29T13:37:15;24.20;86.20
5394;DHT22;2720;52.396;10.064;2023-05-29T13:39:41;24.50;82.80
5394;DHT22;2720;52.396;10.064;2023-05-29T13:42:09;24.50;82.90
5394;DHT22;2720;52.396;10.064;2023-05-29T13:44:37;24.60;81.80
5394;DHT22;2720;52.396;10.064;2023-05-29T13:47:05;24.70;82.20
5394;DHT22;2720;52.396;10.064;2023-05-29T13:49:33;24.70;81.20
5394;DHT22;2720;52.396;10.064;2023-05-29T13:52:00;24.80;79.70
5394;DHT22;2720;52.396;10.064;2023-05-29T13:54:27;24.40;80.90
5394;DHT22;2720;52.396;10.064;2023-05-29T13:56:56;24.60;77.30
5394;DHT22;2720;52.396;10.064;2023-05-29T13:59:23;25.00;76.30
5394;DHT22;2720;52.396;10.064;2023-05-29T14:01:52;25.30;78.90
5394;DHT22;2720;52.396;10.064;2023-05-29T14:04:19;25.80;78.10
5394;DHT22;2720;52.396;10.064;2023-05-29T14:06:46;26.40;77.60
5394;DHT22;2720;52.396;10.064;2023-05-29T14:09:13;26.80;75.80
5394;DHT22;2720;52.396;10.064;2023-05-29T14:11:40;26.80;78.10
5394;DHT22;2720;52.396;10.064;2023-05-29T14:14:07;26.40;75.00
5394;DHT22;2720;52.396;10.064;2023-05-29T14:16:34;26.10;74.80
5394;DHT22;2720;52.396;10.064;2023-05-29T14:19:02;25.60;76.90
5394;DHT22;2720;52.396;10.064;2023-05-29T14:21:29;25.30;76.50
5394;DHT22;2720;52.396;10.064;2023-05-29T14:23:56;25.40;79.20
5394;DHT22;2720;52.396;10.064;2023-05-29T14:26:23;25.70;79.10
5394;DHT22;2720;52.396;10.064;2023-05-29T14:28:50;26.10;74.30
5394;DHT22;2720;52.396;10.064;2023-05-29T14:31:17;26.00;74.20
5394;DHT22;2720;52.396;10.064;2023-05-29T14:33:44;26.00;74.40
5394;DHT22;2720;52.396;10.064;2023-05-29T14:36:12;25.70;75.80
5394;DHT22;2720;52.396;10.064;2023-05-29T14:38:39;25.30;74.40
5394;DHT22;2720;52.396;10.064;2023-05-29T14:41:06;25.50;75.90
5394;DHT22;2720;52.396;10.064;2023-05-29T14:43:34;25.90;74.00
5394;DHT22;2720;52.396;10.064;2023-05-29T14:46:00;25.80;73.80
5394;DHT22;2720;52.396;10.064;2023-05-29T14:48:27;25.70;70.90
5394;DHT22;2720;52.396;10.064;2023-05-29T14:50:54;25.90;74.80
5394;DHT22;2720;52.396;10.064;2023-05-29T14:53:23;26.00;72.50
5394;DHT22;2720;52.396;10.064;2023-05-29T14:55:50;25.90;74.40
5394;DHT22;2720;52.396;10.064;2023-05-29T14:58:17;25.80;73.70
5394;DHT22;2720;52.396;10.064;2023-05-29T15:00:44;25.50;72.00
5394;DHT22;2720;52.396;10.064;2023-05-29T15:03:11;25.50;71.90
5394;DHT22;2720;52.396;10.064;2023-05-29T15:05:37;25.40;73.30
5394;DHT22;2720;52.396;10.064;2023-05-29T15:08:05;25.50;72.30
5394;DHT22;2720;52.396;10.064;2023-05-29T15:10:33;25.90;74.50
5394;DHT22;2720;52.396;10.064;2023-05-29T15:13:00;26.00;72.60
5394;DHT22;2720;52.396;10.064;2023-05-29T15:15:29;25.30;70.50
5394;DHT22;2720;52.396;10.064;2023-05-29T15:17:56;24.60;72.90
5394;DHT22;2720;52.396;10.064;2023-05-29T15:20:25;24.40;73.60
5394;DHT22;2720;52.396;10.064;2023-05-29T15:22:52;24.60;71.50
5394;DHT22;2720;52.396;10.064;2023-05-29T15:25:21;24.70;71.50
5394;DHT22;2720;52.396;10.064;2023-05-29T15:27:50;24.80;72.40
5394;DHT22;2720;52.396;10.064;2023-05-29T15:30:18;25.00;73.20
5394;DHT22;2720;52.396;10.064;2023-05-29T15:32:46;25.10;73.30
5394;DHT22;2720;52.396;10.064;2023-05-29T15:35:14;25.00;71.00
5394;DHT22;2720;52.396;10.064;2023-05-29T15:37:42;24.80;69.80
5394;DHT22;2720;52.396;10.064;2023-05-29T15:40:10;24.90;71.50
5394;DHT22;2720;52.396;10.064;2023-05-29T15:42:37;25.10;71.30
5394;DHT22;2720;52.396;10.064;2023-05-29T15:45:07;24.90;71.50
5394;DHT22;2720;52.396;10.064;2023-05-29T15:47:33;24.50;72.30
5394;DHT22;2720;52.396;10.064;2023-05-29T15:50:00;23.90;73.40
5394;DHT22;2720;52.396;10.064;2023-05-29T15:52:27;23.80;74.10
5394;DHT22;2720;52.396;10.064;2023-05-29T15:54:55;24.20;75.40